Flugplatz Herrenteich (EDEH)

Hier findest Du alle Informationen zum Flugplatz Herrenteich (EDEH).

Informationen für Piloten zum Flugplatz Herrenteich

Hier findest Du alle relevanten Informationen, die Du als Pilot benötigst, um Herrenteich anzufliegen.

Flugplatz: Herrenteich ICAO-Code: EDEH
Frequenz Turm: 132,050 Mhz GAFOR Gebiet: 45
Frequenz Ground: 132,050 Mhz Mogas: nein
Platzrunde: SE 900 ft Landegebühr: -
Platzhöhe: - Sunrise: 07:08 Uhr UTC
Pisten: 04/22 - 535 m x 30 m, GRAS Sunset: 15:29 Uhr UTC

Mitglieder, die in Herrenteich fliegen

Flugwetter am Flugplatz Herrenteich

Die METAR Information stammen aus EDFM (14.31 km entfernt).

METAR Code:
2022/11/25 13:20
EDFM 251320Z 11003KT 080V160 9999 BKN042 10/07 Q1019

Flugschulen am Flugplatz Herrenteich

Am Flugplatz Herrenteich gibt es eine Flugschule.

Benachbarte Flugplätze und Flugschulen

Es gibt 18 weitere Flugplätze in einem Umkreis von 50 km um den Flugplatz Herrenteich.

Jetzt anmelden

Passwort vergessen

Umfrage Archiv

Sendet Ihr ADS-B und/oder FLARM?

Ja
84.6 %
Nein
15.4 %
Stimmen: 254 | Diskussion
Anzeige: Roland Aircraft
Statistik Alle Mitglieder

Aktuell sind 51 Besucher online, davon 2 Mitglieder und 49 Gäste.


Mitglieder online:
fly96  Heli 

Anzeige: ULPower Aero Engines Anzeige: EasyVFR